Time;durP1;ratioP1;P1;durP2;ratioP2;P2;SDS_P1;SDS_P2;PMS_P1;PMS_P2;Temp;Humidity;BMP_temperature;BMP_pressure;BME280_temperature;BME280_humidity;BME280_pressure;Samples;Min_cycle;Max_cycle;Signal;HPM_P1;HPM_P2
2023/11/09 00:00:00;;;;;;;10.37;2.73;;;11.50;99.90;;;;;;7281216;19;20215;-79
2023/11/09 00:02:26;;;;;;;6.10;2.70;;;11.50;99.90;;;;;;7281018;19;20187;-79
2023/11/09 00:04:51;;;;;;;8.70;2.57;;;11.50;99.90;;;;;;7278396;19;20763;-78
2023/11/09 00:07:23;;;;;;;8.70;2.70;;;11.60;99.90;;;;;;7279035;19;20207;-79
2023/11/09 00:09:52;;;;;;;9.57;3.03;;;11.50;99.90;;;;;;7280282;19;20209;-79
2023/11/09 00:12:19;;;;;;;8.93;3.70;;;11.60;99.90;;;;;;7280237;19;20191;-78
2023/11/09 00:14:49;;;;;;;9.30;3.87;;;11.60;99.90;;;;;;7281112;19;20551;-78
2023/11/09 00:17:16;;;;;;;8.93;3.23;;;11.60;99.90;;;;;;7278490;19;20700;-77
2023/11/09 00:19:42;;;;;;;9.10;3.23;;;11.60;99.90;;;;;;7276849;19;20689;-78
2023/11/09 00:22:09;;;;;;;7.93;3.47;;;11.60;99.90;;;;;;7302598;19;20189;-78
2023/11/09 00:24:35;;;;;;;11.13;4.00;;;11.60;99.90;;;;;;7280848;19;20195;-77
2023/11/09 00:27:00;;;;;;;7.83;3.80;;;11.60;99.90;;;;;;7278086;19;20221;-78
2023/11/09 00:29:27;;;;;;;9.93;3.67;;;11.70;99.90;;;;;;7279050;19;20678;-78
2023/11/09 00:31:53;;;;;;;7.70;3.30;;;11.80;99.90;;;;;;7280607;19;20856;-78
2023/11/09 00:34:19;;;;;;;7.30;3.40;;;11.70;99.90;;;;;;7280387;19;20215;-79
2023/11/09 00:36:44;;;;;;;11.90;3.40;;;11.70;99.90;;;;;;7282107;19;20218;-78
2023/11/09 00:39:12;;;;;;;8.83;3.73;;;11.80;99.90;;;;;;7296070;19;20194;-79
2023/11/09 00:41:41;;;;;;;7.77;3.60;;;11.80;99.90;;;;;;7303806;19;20195;-79
2023/11/09 00:44:08;;;;;;;9.63;3.60;;;11.80;99.90;;;;;;7284959;19;20189;-78
2023/11/09 00:46:34;;;;;;;7.43;3.30;;;11.80;99.90;;;;;;7279348;19;20193;-78
2023/11/09 00:49:00;;;;;;;10.30;3.53;;;11.80;99.90;;;;;;7279440;19;20200;-78
2023/11/09 00:51:26;;;;;;;8.57;3.40;;;11.80;99.90;;;;;;7275979;19;20213;-79
2023/11/09 00:53:52;;;;;;;10.70;3.27;;;11.80;99.90;;;;;;7278193;19;20196;-79
2023/11/09 00:56:17;;;;;;;8.87;3.20;;;11.80;99.90;;;;;;7277306;19;20195;-77
2023/11/09 00:58:43;;;;;;;5.97;2.60;;;11.80;99.90;;;;;;7273935;19;20216;-78
2023/11/09 01:01:09;;;;;;;9.03;3.17;;;11.70;99.90;;;;;;7302244;19;20769;-78
2023/11/09 01:03:35;;;;;;;8.87;3.27;;;11.60;99.90;;;;;;7278010;19;20227;-77
2023/11/09 01:06:05;;;;;;;6.93;3.40;;;11.60;99.90;;;;;;7277831;19;20773;-78
2023/11/09 01:08:31;;;;;;;9.13;3.33;;;11.60;99.90;;;;;;7279323;19;20196;-78
2023/11/09 01:10:56;;;;;;;10.17;3.40;;;11.60;99.90;;;;;;7278907;19;20183;-78
2023/11/09 01:13:22;;;;;;;9.13;3.37;;;11.70;99.90;;;;;;7277720;19;20192;-78
2023/11/09 01:15:48;;;;;;;6.43;3.50;;;11.70;99.90;;;;;;7277123;19;20192;-78
2023/11/09 01:18:14;;;;;;;8.60;3.40;;;11.70;99.90;;;;;;7276671;19;20225;-78
2023/11/09 01:20:40;;;;;;;7.47;3.30;;;11.60;99.90;;;;;;7292590;19;20264;-77
2023/11/09 01:23:11;;;;;;;9.33;3.77;;;11.60;99.90;;;;;;7295118;19;20305;-77
2023/11/09 01:25:38;;;;;;;9.40;4.33;;;11.70;99.90;;;;;;7278889;19;20733;-78
2023/11/09 01:28:03;;;;;;;10.17;3.47;;;11.90;99.90;;;;;;7278098;19;20192;-78
2023/11/09 01:30:29;;;;;;;11.67;3.57;;;11.90;99.90;;;;;;7281381;19;20678;-78
2023/11/09 01:32:56;;;;;;;11.60;3.60;;;12.00;99.90;;;;;;7284212;19;20187;-78
2023/11/09 01:35:23;;;;;;;9.80;3.67;;;12.00;99.90;;;;;;7281270;19;20847;-78
2023/11/09 01:37:49;;;;;;;8.57;3.60;;;11.90;99.90;;;;;;7284491;19;20568;-78
2023/11/09 01:40:15;;;;;;;11.40;4.07;;;11.90;99.90;;;;;;7284825;19;20203;-79
2023/11/09 01:42:43;;;;;;;10.93;3.90;;;11.90;99.90;;;;;;7293350;19;20180;-78
2023/11/09 01:45:10;;;;;;;11.80;3.90;;;12.00;99.90;;;;;;7307723;19;20648;-77
2023/11/09 01:47:36;;;;;;;8.93;3.70;;;12.00;99.90;;;;;;7286061;19;20255;-78
2023/11/09 01:50:02;;;;;;;9.73;3.63;;;12.10;99.90;;;;;;7282793;19;21013;-78
2023/11/09 01:52:29;;;;;;;9.53;3.53;;;12.10;99.90;;;;;;7283183;19;20187;-79
2023/11/09 01:54:55;;;;;;;11.10;3.30;;;12.10;99.90;;;;;;7282780;19;20212;-78
2023/11/09 01:57:23;;;;;;;10.53;3.40;;;12.10;99.90;;;;;;7281381;19;20185;-78
2023/11/09 01:59:51;;;;;;;9.80;3.77;;;12.10;99.90;;;;;;7282492;19;20193;-78
2023/11/09 02:02:18;;;;;;;9.10;3.80;;;12.10;99.90;;;;;;7282869;19;20189;-78
2023/11/09 02:04:47;;;;;;;11.03;3.40;;;12.20;99.90;;;;;;7283322;19;20608;-78
2023/11/09 02:07:13;;;;;;;10.57;3.80;;;12.20;99.90;;;;;;7280384;19;20815;-78
2023/11/09 02:09:39;;;;;;;9.17;3.70;;;12.30;99.90;;;;;;7305409;19;20191;-78
2023/11/09 02:12:07;;;;;;;11.53;4.03;;;12.30;99.90;;;;;;7283400;19;20663;-78
2023/11/09 02:14:32;;;;;;;11.03;3.67;;;12.30;99.90;;;;;;7283616;19;20189;-78
2023/11/09 02:16:59;;;;;;;9.60;3.93;;;12.40;99.90;;;;;;7283359;19;20196;-79
2023/11/09 02:19:28;;;;;;;9.23;4.27;;;12.20;99.90;;;;;;7282659;19;20223;-77
2023/11/09 02:21:56;;;;;;;11.27;4.20;;;12.20;99.90;;;;;;7283496;19;20200;-77
2023/11/09 02:24:22;;;;;;;9.23;4.20;;;12.30;99.90;;;;;;7282924;19;20217;-77
2023/11/09 02:26:48;;;;;;;13.17;4.10;;;12.30;99.90;;;;;;7282876;19;20541;-77
2023/11/09 02:29:15;;;;;;;10.67;3.97;;;12.20;99.90;;;;;;7281647;19;20195;-78
2023/11/09 02:31:41;;;;;;;10.13;4.27;;;12.30;99.90;;;;;;7292380;19;20191;-78
2023/11/09 02:34:09;;;;;;;11.87;3.90;;;12.30;99.90;;;;;;7301692;19;20184;-78
2023/11/09 02:36:35;;;;;;;10.73;3.63;;;12.30;99.90;;;;;;7284725;19;20225;-78
2023/11/09 02:39:02;;;;;;;9.40;3.10;;;12.30;99.90;;;;;;7283126;19;20189;-78
2023/11/09 02:41:28;;;;;;;11.17;3.20;;;12.40;99.90;;;;;;7280015;19;20652;-78
2023/11/09 02:43:53;;;;;;;5.87;2.60;;;12.40;99.90;;;;;;7284231;19;20191;-77
2023/11/09 02:46:19;;;;;;;5.67;2.93;;;12.40;99.90;;;;;;7279163;19;20199;-77
2023/11/09 02:48:46;;;;;;;6.70;2.57;;;12.40;99.90;;;;;;7281577;19;20195;-78
2023/11/09 02:51:12;;;;;;;5.97;2.60;;;12.40;99.90;;;;;;7279665;19;20259;-78
2023/11/09 02:53:39;;;;;;;7.03;2.63;;;12.40;99.90;;;;;;7305224;19;20189;-78
2023/11/09 02:56:08;;;;;;;8.27;2.40;;;12.40;99.90;;;;;;7280760;19;20722;-77
2023/11/09 02:58:34;;;;;;;5.93;2.60;;;12.50;99.90;;;;;;7280747;19;20192;-77
2023/11/09 03:01:01;;;;;;;6.77;2.70;;;12.40;99.90;;;;;;7281947;19;20684;-78
2023/11/09 03:03:27;;;;;;;9.10;3.17;;;12.30;99.90;;;;;;7279480;19;20605;-78
2023/11/09 03:05:55;;;;;;;8.40;2.90;;;12.40;99.90;;;;;;7280277;19;20598;-78
2023/11/09 03:08:22;;;;;;;7.97;3.50;;;12.30;99.90;;;;;;7281007;19;20230;-77
2023/11/09 03:10:48;;;;;;;5.67;3.27;;;12.40;99.90;;;;;;7282485;19;20200;-78
2023/11/09 03:13:14;;;;;;;9.43;4.13;;;12.40;99.90;;;;;;7280863;19;20266;-78
2023/11/09 03:15:41;;;;;;;9.93;5.10;;;12.40;99.90;;;;;;7297926;19;20280;-78
2023/11/09 03:18:09;;;;;;;8.63;5.13;;;12.40;99.90;;;;;;7300324;19;20193;-78
2023/11/09 03:20:36;;;;;;;11.20;6.13;;;12.40;99.90;;;;;;7280932;19;20210;-77
2023/11/09 03:23:02;;;;;;;11.47;6.00;;;12.50;99.90;;;;;;7282151;19;20199;-78
2023/11/09 03:25:28;;;;;;;11.70;6.17;;;12.50;99.90;;;;;;7278852;19;20184;-77
2023/11/09 03:27:54;;;;;;;11.43;6.93;;;12.50;99.90;;;;;;7279445;19;20193;-78
2023/11/09 03:30:20;;;;;;;13.70;6.73;;;12.40;99.90;;;;;;7280749;19;20277;-77
2023/11/09 03:32:46;;;;;;;13.57;6.87;;;12.30;99.90;;;;;;7280543;19;20196;-77
2023/11/09 03:35:13;;;;;;;12.90;6.97;;;12.40;99.90;;;;;;7280797;19;20188;-78
2023/11/09 03:37:42;;;;;;;13.03;7.50;;;12.40;99.90;;;;;;7302976;19;20185;-77
2023/11/09 03:40:08;;;;;;;15.00;7.77;;;12.40;99.90;;;;;;7281171;19;20188;-78
2023/11/09 03:42:34;;;;;;;14.03;7.60;;;12.40;99.90;;;;;;7282210;19;20184;-77
2023/11/09 03:45:00;;;;;;;12.97;7.43;;;12.30;99.90;;;;;;7281150;19;20202;-78
2023/11/09 03:47:26;;;;;;;13.70;8.33;;;12.30;99.90;;;;;;7280275;19;20207;-78
2023/11/09 03:49:52;;;;;;;14.80;8.33;;;12.30;99.90;;;;;;7281858;19;20203;-78
2023/11/09 03:52:17;;;;;;;15.57;7.83;;;12.30;99.90;;;;;;7280958;19;20854;-79
2023/11/09 03:54:43;;;;;;;14.77;7.93;;;12.40;99.90;;;;;;7280422;19;20181;-78
2023/11/09 03:57:09;;;;;;;15.00;7.87;;;12.30;99.90;;;;;;7302336;19;20260;-78
2023/11/09 03:59:35;;;;;;;16.37;7.60;;;12.30;99.90;;;;;;7280910;19;20181;-78
2023/11/09 04:02:01;;;;;;;15.87;7.13;;;12.40;99.90;;;;;;7278885;19;20201;-78
2023/11/09 04:04:27;;;;;;;15.17;5.60;;;12.40;99.90;;;;;;7282879;19;20196;-77
2023/11/09 04:06:54;;;;;;;10.20;4.90;;;12.30;99.90;;;;;;7279866;19;20197;-78
2023/11/09 04:09:20;;;;;;;15.30;5.07;;;12.20;99.90;;;;;;7281192;19;20609;-77
2023/11/09 04:11:46;;;;;;;13.87;4.30;;;12.20;99.90;;;;;;7280622;19;20209;-78
2023/11/09 04:14:12;;;;;;;13.13;4.40;;;12.20;99.90;;;;;;7280262;19;20195;-77
2023/11/09 04:16:38;;;;;;;13.57;4.00;;;12.20;99.90;;;;;;7302070;19;20181;-78
2023/11/09 04:19:04;;;;;;;19.17;5.40;;;12.20;99.90;;;;;;7280484;19;20192;-78
2023/11/09 04:21:29;;;;;;;14.57;4.83;;;12.20;99.90;;;;;;7279456;19;20248;-77
2023/11/09 04:23:55;;;;;;;19.60;5.53;;;12.20;99.90;;;;;;7282125;19;20196;-77
2023/11/09 04:26:22;;;;;;;20.87;5.90;;;12.20;99.90;;;;;;7280750;19;20188;-77
2023/11/09 04:28:51;;;;;;;21.93;6.50;;;12.30;99.90;;;;;;7283526;19;20188;-78
2023/11/09 04:31:20;;;;;;;19.40;5.63;;;12.20;99.90;;;;;;7273414;19;20204;-78
2023/11/09 04:33:46;;;;;;;18.03;6.37;;;12.20;99.90;;;;;;7280059;19;20197;-77
2023/11/09 04:36:12;;;;;;;21.37;6.93;;;12.10;99.90;;;;;;7284533;19;20271;-77
2023/11/09 04:38:39;;;;;;;20.27;6.77;;;12.10;99.90;;;;;;7305148;19;20272;-78
2023/11/09 04:41:15;;;;;;;21.90;6.80;;;12.00;99.90;;;;;;7281241;19;20184;-77
2023/11/09 04:43:42;;;;;;;18.13;6.20;;;12.00;99.90;;;;;;7272265;19;20200;-77
2023/11/09 04:46:13;;;;;;;19.30;6.13;;;12.10;99.90;;;;;;7303503;19;20648;-77
2023/11/09 04:48:47;;;;;;;23.77;7.20;;;12.00;99.90;;;;;;7279628;19;20189;-77
2023/11/09 04:51:29;;;;;;;19.10;7.00;;;12.10;99.90;;;;;;7258775;19;20224;-76
2023/11/09 04:54:03;;;;;;;20.17;6.97;;;12.10;99.90;;;;;;7279114;19;20209;-76
2023/11/09 04:56:38;;;;;;;18.13;6.30;;;12.00;99.90;;;;;;7282066;19;20189;-77
2023/11/09 05:07:20;;;;;;;15.43;5.10;;;12.10;99.90;;;;;;7184339;19;2004746;-78
2023/11/09 05:09:47;;;;;;;14.90;5.43;;;12.10;99.90;;;;;;7285620;19;20199;-77
2023/11/09 05:12:15;;;;;;;14.53;5.13;;;12.10;99.90;;;;;;7284617;19;20196;-78
2023/11/09 05:14:41;;;;;;;16.53;5.00;;;12.10;99.90;;;;;;7297364;19;20231;-78
2023/11/09 05:17:08;;;;;;;12.73;4.93;;;12.10;99.90;;;;;;7306025;19;20675;-78
2023/11/09 05:19:35;;;;;;;15.00;5.17;;;12.00;99.90;;;;;;7284709;19;20286;-78
2023/11/09 05:22:02;;;;;;;14.30;5.03;;;12.00;99.90;;;;;;7286169;19;20209;-78
2023/11/09 05:24:28;;;;;;;12.23;4.43;;;11.90;99.90;;;;;;7285822;19;20529;-78
2023/11/09 05:26:53;;;;;;;16.53;5.20;;;12.00;99.90;;;;;;7285103;19;20189;-78
2023/11/09 05:29:20;;;;;;;12.13;4.70;;;12.10;99.90;;;;;;7283750;19;20538;-77
2023/11/09 05:31:46;;;;;;;13.77;5.10;;;12.10;99.90;;;;;;7285962;19;20266;-78
2023/11/09 05:34:12;;;;;;;14.67;4.83;;;12.00;99.90;;;;;;7293737;19;20668;-78
2023/11/09 05:36:38;;;;;;;12.47;4.60;;;12.00;99.90;;;;;;7308485;19;20582;-78
2023/11/09 05:39:10;;;;;;;13.23;4.63;;;12.00;99.90;;;;;;7284751;19;20209;-78
2023/11/09 05:41:36;;;;;;;10.60;4.00;;;11.90;99.90;;;;;;7285417;19;20204;-77
2023/11/09 05:44:03;;;;;;;12.57;4.40;;;11.90;99.90;;;;;;7285397;19;20182;-78
2023/11/09 05:46:29;;;;;;;16.77;4.50;;;11.90;99.90;;;;;;7284190;19;20249;-78
2023/11/09 05:48:55;;;;;;;15.50;4.50;;;11.90;99.90;;;;;;7285075;19;20193;-79
2023/11/09 05:51:23;;;;;;;14.07;4.63;;;11.90;99.90;;;;;;7284576;19;20666;-78
2023/11/09 05:53:53;;;;;;;12.93;4.00;;;11.90;99.90;;;;;;7285328;19;20543;-79
2023/11/09 05:56:19;;;;;;;14.43;4.27;;;11.90;99.90;;;;;;7286440;19;20189;-78
2023/11/09 05:58:45;;;;;;;12.93;4.00;;;11.80;99.90;;;;;;7284063;19;20268;-79
2023/11/09 06:01:11;;;;;;;11.63;3.90;;;11.80;99.90;;;;;;7303798;19;20200;-78
2023/11/09 06:03:37;;;;;;;13.70;4.03;;;11.80;99.90;;;;;;7299980;19;20201;-78
2023/11/09 06:06:04;;;;;;;15.83;4.13;;;11.80;99.90;;;;;;7282961;19;20203;-79
2023/11/09 06:08:30;;;;;;;15.37;4.13;;;11.80;99.90;;;;;;7284387;19;21646;-78
2023/11/09 06:10:57;;;;;;;20.80;4.83;;;11.80;99.90;;;;;;7285544;19;20193;-78
2023/11/09 06:13:23;;;;;;;16.50;4.63;;;11.80;99.90;;;;;;7283211;19;20281;-77
2023/11/09 06:15:49;;;;;;;12.93;4.20;;;11.80;99.90;;;;;;7282793;19;20223;-77
2023/11/09 06:18:16;;;;;;;14.10;3.60;;;11.90;99.90;;;;;;7281444;19;20285;-78
2023/11/09 06:20:44;;;;;;;15.20;4.43;;;11.90;99.90;;;;;;7291856;19;20200;-78
2023/11/09 06:23:10;;;;;;;12.53;4.07;;;11.90;99.90;;;;;;7306217;19;20610;-77
2023/11/09 06:25:35;;;;;;;15.77;4.23;;;11.90;99.90;;;;;;7282464;19;20274;-77
2023/11/09 06:28:02;;;;;;;15.83;4.40;;;12.00;99.90;;;;;;7283686;19;20194;-78
2023/11/09 06:30:29;;;;;;;15.93;4.27;;;12.10;99.90;;;;;;7283803;19;20195;-77
2023/11/09 06:32:55;;;;;;;14.80;4.57;;;12.10;99.90;;;;;;7282920;19;20637;-77
2023/11/09 06:35:21;;;;;;;16.40;4.23;;;12.00;99.90;;;;;;7285199;19;20184;-78
2023/11/09 06:37:47;;;;;;;11.50;4.30;;;12.00;99.90;;;;;;7283027;19;20248;-78
2023/11/09 06:40:16;;;;;;;15.43;4.87;;;12.00;99.90;;;;;;7283464;19;20215;-77
2023/11/09 06:42:45;;;;;;;16.77;4.70;;;12.00;99.90;;;;;;7289597;19;20225;-77
2023/11/09 06:45:11;;;;;;;14.27;5.30;;;12.10;99.90;;;;;;7299661;19;20192;-77
2023/11/09 06:47:38;;;;;;;17.87;6.57;;;12.00;99.90;;;;;;7296092;19;20189;-77
2023/11/09 06:50:11;;;;;;;18.47;7.00;;;12.00;99.90;;;;;;7283790;19;20213;-77
2023/11/09 06:52:39;;;;;;;15.93;7.50;;;11.90;99.90;;;;;;7286223;19;20741;-78
2023/11/09 06:55:06;;;;;;;17.37;7.90;;;11.80;99.90;;;;;;7284108;19;20194;-77
2023/11/09 06:57:34;;;;;;;23.53;8.17;;;11.80;99.90;;;;;;7284274;19;20205;-77
2023/11/09 07:00:00;;;;;;;18.77;7.57;;;11.80;99.90;;;;;;7281006;19;20516;-77
2023/11/09 07:02:26;;;;;;;20.77;8.40;;;11.80;99.90;;;;;;7280942;19;20215;-78
2023/11/09 07:04:52;;;;;;;21.03;7.67;;;11.90;99.90;;;;;;7281360;19;20202;-77
2023/11/09 07:07:18;;;;;;;23.43;7.50;;;11.80;99.90;;;;;;7283378;19;20600;-77
2023/11/09 07:09:44;;;;;;;20.03;6.90;;;11.70;99.90;;;;;;7282747;19;20195;-78
2023/11/09 07:12:09;;;;;;;23.30;7.13;;;11.70;99.90;;;;;;7303482;19;20630;-77
2023/11/09 07:14:36;;;;;;;20.80;6.43;;;11.70;99.90;;;;;;7279559;19;20739;-78
2023/11/09 07:17:06;;;;;;;22.17;6.73;;;11.70;99.90;;;;;;7281737;19;20185;-78
2023/11/09 07:19:33;;;;;;;23.43;5.83;;;11.70;99.90;;;;;;7281572;19;20711;-78
2023/11/09 07:22:00;;;;;;;20.30;6.23;;;11.70;99.90;;;;;;7282936;19;20196;-78
2023/11/09 07:24:29;;;;;;;20.23;6.20;;;11.70;99.90;;;;;;7280944;19;20200;-78
2023/11/09 07:26:55;;;;;;;18.17;5.93;;;11.60;99.90;;;;;;7282783;19;20186;-78
2023/11/09 07:29:21;;;;;;;16.53;5.77;;;11.50;99.90;;;;;;7281621;19;20184;-77
2023/11/09 07:31:46;;;;;;;22.83;5.90;;;11.40;99.90;;;;;;7281201;19;20190;-78
2023/11/09 07:34:12;;;;;;;18.83;6.20;;;11.30;99.90;;;;;;7286346;19;20184;-77
2023/11/09 07:36:38;;;;;;;24.27;5.80;;;11.30;99.90;;;;;;7304841;19;20193;-77
2023/11/09 07:39:03;;;;;;;23.20;6.50;;;11.30;99.90;;;;;;7282468;19;20209;-77
2023/11/09 07:41:30;;;;;;;21.90;6.37;;;11.40;99.90;;;;;;7279671;19;20198;-77
2023/11/09 07:43:56;;;;;;;23.33;7.03;;;11.50;99.90;;;;;;7280767;19;20722;-77
2023/11/09 07:46:21;;;;;;;23.13;6.30;;;11.40;99.90;;;;;;7280856;19;20259;-77
2023/11/09 07:48:47;;;;;;;25.93;6.93;;;11.40;99.90;;;;;;7281625;19;20199;-77
2023/11/09 07:51:13;;;;;;;22.73;6.50;;;11.50;99.90;;;;;;7280927;19;20218;-77
2023/11/09 07:53:39;;;;;;;22.20;5.80;;;11.40;99.90;;;;;;7303854;19;20195;-77
2023/11/09 07:56:05;;;;;;;23.00;6.10;;;11.40;99.90;;;;;;7282755;19;20183;-77
2023/11/09 07:58:31;;;;;;;20.30;5.57;;;11.50;99.90;;;;;;7279566;19;20201;-77
2023/11/09 08:00:57;;;;;;;19.10;5.83;;;11.40;99.90;;;;;;7281440;19;20670;-77
2023/11/09 08:03:23;;;;;;;22.57;5.77;;;11.50;99.90;;;;;;7279317;19;20199;-77
2023/11/09 08:05:49;;;;;;;20.43;5.30;;;11.50;99.90;;;;;;7280932;19;20200;-77
2023/11/09 08:08:16;;;;;;;18.93;5.23;;;11.50;99.90;;;;;;7281451;19;20684;-77
2023/11/09 08:10:42;;;;;;;21.13;4.50;;;11.50;99.90;;;;;;7291246;19;20220;-77
2023/11/09 08:13:08;;;;;;;22.37;5.00;;;11.50;99.90;;;;;;7302753;19;20663;-78
2023/11/09 08:15:35;;;;;;;22.40;4.57;;;11.50;99.90;;;;;;7279788;19;20181;-78
2023/11/09 08:18:02;;;;;;;17.30;4.53;;;11.60;99.90;;;;;;7280276;19;20222;-77
2023/11/09 08:20:29;;;;;;;20.20;4.30;;;11.50;99.90;;;;;;7280185;19;20199;-78
2023/11/09 08:22:56;;;;;;;19.33;4.00;;;11.60;99.90;;;;;;7280772;19;20260;-77
2023/11/09 08:25:23;;;;;;;16.97;4.07;;;11.60;99.90;;;;;;7281063;19;20670;-77
2023/11/09 08:27:51;;;;;;;19.40;4.00;;;11.50;99.90;;;;;;7280750;19;20188;-77
2023/11/09 08:30:19;;;;;;;21.63;4.13;;;11.50;99.90;;;;;;7279282;19;20184;-77
2023/11/09 08:32:47;;;;;;;19.13;4.13;;;11.60;99.90;;;;;;7278427;19;20287;-77
2023/11/09 08:35:13;;;;;;;18.87;3.63;;;11.60;99.90;;;;;;7282740;19;20181;-77
2023/11/09 08:37:43;;;;;;;19.50;3.93;;;11.70;99.90;;;;;;7302081;19;20528;-77
2023/11/09 08:40:17;;;;;;;20.03;4.00;;;11.70;99.90;;;;;;7277397;19;20189;-78
2023/11/09 08:42:48;;;;;;;18.03;4.20;;;11.90;99.90;;;;;;7259786;19;20184;-78
2023/11/09 08:45:14;;;;;;;15.90;4.07;;;11.80;99.90;;;;;;7278536;19;20196;-77
2023/11/09 08:47:39;;;;;;;15.97;3.90;;;12.10;99.90;;;;;;7299050;19;20300;-78
2023/11/09 08:50:08;;;;;;;16.03;3.70;;;12.20;99.90;;;;;;7279133;19;20268;-78
2023/11/09 08:52:35;;;;;;;14.93;3.70;;;12.40;99.90;;;;;;7279791;19;20181;-78
2023/11/09 08:55:04;;;;;;;14.27;3.97;;;12.50;99.90;;;;;;7278340;19;20193;-78
2023/11/09 08:57:32;;;;;;;18.73;3.37;;;12.70;99.90;;;;;;7279268;19;20197;-77
2023/11/09 09:00:00;;;;;;;23.00;3.77;;;12.70;99.90;;;;;;7278672;19;20188;-77
2023/11/09 09:02:29;;;;;;;17.80;3.67;;;12.50;99.90;;;;;;7279076;19;20185;-77
2023/11/09 09:04:55;;;;;;;15.43;3.90;;;12.40;99.90;;;;;;7276869;19;20189;-78
2023/11/09 09:07:21;;;;;;;21.37;5.60;;;12.40;99.90;;;;;;7278862;19;20300;-78
2023/11/09 09:09:47;;;;;;;20.90;6.37;;;12.60;99.90;;;;;;7278509;19;20649;-78
2023/11/09 09:12:18;;;;;;;18.33;5.67;;;12.80;99.90;;;;;;7278671;19;20189;-78
2023/11/09 09:14:46;;;;;;;20.77;6.20;;;13.00;99.90;;;;;;7278019;19;20197;-78
2023/11/09 09:17:12;;;;;;;17.87;4.80;;;13.00;99.90;;;;;;7292698;19;20759;-78
2023/11/09 09:19:38;;;;;;;16.33;4.80;;;12.90;99.90;;;;;;7299602;19;20213;-78
2023/11/09 09:22:05;;;;;;;23.07;7.47;;;13.00;99.90;;;;;;7279318;19;20185;-78
2023/11/09 09:24:31;;;;;;;23.97;5.87;;;13.10;99.90;;;;;;7278785;19;20194;-78
2023/11/09 09:26:57;;;;;;;20.37;6.53;;;13.20;99.90;;;;;;7278718;19;20195;-77
2023/11/09 09:29:24;;;;;;;19.93;6.80;;;13.40;99.90;;;;;;7277998;19;20201;-78
2023/11/09 09:31:50;;;;;;;20.10;6.50;;;13.40;99.90;;;;;;7276589;19;20620;-78
2023/11/09 09:34:23;;;;;;;20.67;6.40;;;13.50;99.90;;;;;;7276310;19;20189;-78
2023/11/09 09:36:49;;;;;;;24.43;8.73;;;13.40;99.90;;;;;;7278424;19;20192;-78
2023/11/09 09:39:16;;;;;;;19.03;6.70;;;13.50;99.90;;;;;;7276723;19;20714;-78
2023/11/09 09:41:42;;;;;;;23.30;7.13;;;13.60;99.90;;;;;;7298209;19;20191;-78
2023/11/09 09:44:14;;;;;;;21.27;6.60;;;13.80;99.90;;;;;;7292276;19;20262;-78
2023/11/09 09:46:42;;;;;;;18.93;6.80;;;13.80;99.90;;;;;;7274220;19;20682;-78
2023/11/09 09:49:17;;;;;;;24.67;6.13;;;13.80;99.90;;;;;;7277606;19;20195;-78
2023/11/09 09:51:43;;;;;;;19.93;6.87;;;13.80;99.90;;;;;;7268684;19;20542;-78
2023/11/09 09:54:10;;;;;;;23.00;5.90;;;13.80;99.90;;;;;;7306296;19;20192;-78
2023/11/09 09:56:40;;;;;;;23.60;6.70;;;14.00;99.90;;;;;;7283357;19;20191;-78
2023/11/09 09:59:09;;;;;;;20.87;5.87;;;14.30;99.90;;;;;;7284114;19;20685;-78
2023/11/09 10:01:40;;;;;;;20.20;4.70;;;14.50;99.90;;;;;;7284161;19;20330;-78
2023/11/09 10:04:06;;;;;;;23.10;5.50;;;14.70;99.90;;;;;;7284789;19;20733;-78
2023/11/09 10:06:32;;;;;;;19.57;5.60;;;14.70;99.90;;;;;;7290131;19;20265;-78
2023/11/09 10:08:58;;;;;;;21.77;4.70;;;14.70;99.90;;;;;;7299728;19;20195;-78
2023/11/09 10:11:24;;;;;;;22.63;5.07;;;15.00;99.90;;;;;;7298469;19;20189;-78
2023/11/09 10:13:50;;;;;;;22.23;5.10;;;15.40;99.90;;;;;;7296474;19;20214;-78
2023/11/09 10:16:18;;;;;;;18.50;4.57;;;16.00;99.90;;;;;;7299127;19;20189;-77
2023/11/09 10:18:47;;;;;;;18.73;4.50;;;16.10;99.90;;;;;;7286682;19;20204;-78
2023/11/09 10:21:13;;;;;;;23.97;5.50;;;15.60;99.90;;;;;;7298025;19;20275;-78
2023/11/09 10:23:40;;;;;;;18.50;4.60;;;15.40;99.90;;;;;;7306424;19;20712;-78
2023/11/09 10:26:11;;;;;;;19.13;3.93;;;15.50;99.90;;;;;;7283510;19;20313;-78
2023/11/09 10:28:38;;;;;;;21.80;5.40;;;15.60;99.90;;;;;;7283974;19;20196;-78
2023/11/09 10:31:04;;;;;;;21.10;3.87;;;16.10;99.90;;;;;;7281521;19;20684;-78
2023/11/09 10:33:30;;;;;;;19.00;4.37;;;16.40;99.90;;;;;;7281510;19;20670;-78
2023/11/09 10:35:56;;;;;;;19.73;4.53;;;16.70;99.90;;;;;;7282175;19;20311;-78
2023/11/09 10:38:24;;;;;;;21.30;4.23;;;16.80;99.90;;;;;;7282452;19;20201;-78
2023/11/09 10:40:53;;;;;;;19.27;4.90;;;17.00;99.90;;;;;;7283256;19;20201;-78
2023/11/09 10:43:20;;;;;;;17.93;4.07;;;17.20;99.90;;;;;;7283094;19;20199;-78
2023/11/09 10:45:47;;;;;;;17.63;4.40;;;17.40;99.90;;;;;;7282205;19;20197;-78
2023/11/09 10:48:22;;;;;;;21.40;3.60;;;16.90;99.90;;;;;;7289430;19;20204;-78
2023/11/09 10:50:50;;;;;;;18.70;4.07;;;16.90;99.90;;;;;;7283026;19;20198;-78
2023/11/09 10:53:18;;;;;;;21.93;7.40;;;16.40;99.90;;;;;;7282256;19;20191;-78
2023/11/09 10:55:49;;;;;;;21.50;4.20;;;16.00;99.90;;;;;;7282536;19;20513;-78
2023/11/09 10:58:20;;;;;;;16.97;4.17;;;15.90;99.90;;;;;;7281643;19;20274;-78
2023/11/09 11:00:58;;;;;;;20.47;4.43;;;15.60;99.90;;;;;;7279887;19;20641;-77
2023/11/09 11:03:36;;;;;;;18.77;4.07;;;15.70;99.90;;;;;;7279298;19;20201;-78
2023/11/09 11:06:16;;;;;;;25.87;4.03;;;15.90;99.90;;;;;;7279722;19;20335;-78
2023/11/09 11:08:49;;;;;;;20.13;4.10;;;16.20;99.90;;;;;;7280575;19;20299;-78
2023/11/09 11:11:33;;;;;;;17.67;3.97;;;16.10;99.90;;;;;;7278616;19;20253;-77
2023/11/09 11:14:09;;;;;;;17.80;3.87;;;16.20;99.90;;;;;;7279300;19;20205;-78
2023/11/09 11:17:07;;;;;;;17.70;3.53;;;16.50;99.90;;;;;;7281858;19;20293;-78
2023/11/09 11:19:54;;;;;;;17.57;4.10;;;17.00;99.90;;;;;;7176994;19;2006028;-78
2023/11/09 11:22:40;;;;;;;20.47;4.40;;;17.10;99.90;;;;;;7178859;19;2004749;-77
2023/11/09 11:25:30;;;;;;;16.43;4.43;;;16.50;99.90;;;;;;7280167;19;20193;-77
2023/11/09 11:27:58;;;;;;;23.63;5.50;;;16.30;99.90;;;;;;7178054;19;2004617;-78
2023/11/09 11:30:39;;;;;;;18.40;4.40;;;16.30;99.90;;;;;;7276706;19;20185;-77
2023/11/09 11:33:16;;;;;;;23.30;5.83;;;15.90;99.90;;;;;;7275709;19;20225;-77
2023/11/09 11:35:55;;;;;;;22.00;4.60;;;15.70;99.90;;;;;;7274434;19;20188;-77
2023/11/09 11:38:22;;;;;;;22.87;5.77;;;15.60;99.90;;;;;;7280993;19;21637;-77
2023/11/09 11:40:51;;;;;;;23.23;5.07;;;15.30;99.90;;;;;;7278600;19;20180;-78
2023/11/09 11:43:17;;;;;;;19.57;4.33;;;15.20;99.90;;;;;;7280035;19;20321;-79
2023/11/09 11:45:46;;;;;;;24.27;4.80;;;15.10;99.90;;;;;;7285378;19;20217;-77
2023/11/09 11:48:22;;;;;;;18.97;4.03;;;15.30;99.90;;;;;;7298717;19;20191;-77
2023/11/09 11:50:49;;;;;;;23.17;3.80;;;15.30;99.90;;;;;;7280265;19;20188;-77
2023/11/09 11:53:28;;;;;;;19.47;3.50;;;15.20;99.90;;;;;;7279272;19;20183;-77
2023/11/09 11:56:10;;;;;;;17.47;3.00;;;15.10;99.90;;;;;;7281067;19;20535;-78
2023/11/09 11:58:46;;;;;;;20.60;3.40;;;14.90;99.90;;;;;;7279940;19;20189;-78
2023/11/09 12:01:33;;;;;;;20.67;2.93;;;14.80;99.90;;;;;;7274366;19;20981;-77
2023/11/09 12:04:02;;;;;;;21.77;3.07;;;14.80;99.90;;;;;;7280712;19;20194;-77
2023/11/09 12:06:29;;;;;;;19.67;2.87;;;14.50;99.90;;;;;;7280008;19;20194;-78
2023/11/09 12:08:59;;;;;;;20.57;3.23;;;14.30;99.90;;;;;;7281546;19;20229;-77
2023/11/09 12:11:33;;;;;;;16.07;3.13;;;14.30;99.90;;;;;;7280861;19;20227;-77
2023/11/09 12:14:08;;;;;;;25.07;3.20;;;14.30;99.90;;;;;;7276534;19;20553;-77
2023/11/09 12:16:34;;;;;;;15.17;3.20;;;14.30;99.90;;;;;;7281440;19;20190;-77
2023/11/09 12:19:06;;;;;;;18.47;3.07;;;14.50;99.90;;;;;;7279322;19;20509;-78
2023/11/09 12:21:34;;;;;;;18.33;2.90;;;14.70;99.90;;;;;;7279333;19;20208;-78
2023/11/09 12:24:00;;;;;;;19.77;4.23;;;14.50;99.90;;;;;;7280160;19;20613;-77
2023/11/09 12:26:32;;;;;;;17.30;2.97;;;14.40;99.90;;;;;;7278956;19;20663;-78
2023/11/09 12:29:00;;;;;;;19.80;2.90;;;14.30;99.90;;;;;;7279207;19;20204;-78
2023/11/09 12:31:29;;;;;;;12.10;2.90;;;14.10;99.90;;;;;;7279762;19;20561;-78
2023/11/09 12:34:04;;;;;;;18.20;3.17;;;14.00;99.90;;;;;;7279047;19;20187;-78
2023/11/09 12:36:30;;;;;;;16.07;3.00;;;14.10;99.90;;;;;;7280206;19;20194;-78
2023/11/09 12:38:57;;;;;;;18.07;3.10;;;14.20;99.90;;;;;;7278558;19;20201;-77
2023/11/09 12:41:24;;;;;;;21.60;3.40;;;14.20;99.90;;;;;;7278438;19;20191;-77
2023/11/09 12:43:50;;;;;;;13.70;2.80;;;14.80;99.90;;;;;;7279803;19;20577;-77
2023/11/09 12:46:19;;;;;;;17.93;2.83;;;15.00;99.90;;;;;;7278325;19;20191;-77
2023/11/09 12:48:48;;;;;;;17.17;2.87;;;15.20;99.90;;;;;;7279117;19;20287;-77